Time;durP1;ratioP1;P1;durP2;ratioP2;P2;SDS_P1;SDS_P2;PMS_P1;PMS_P2;Temp;Humidity;BMP_temperature;BMP_pressure;BME280_temperature;BME280_humidity;BME280_pressure;Samples;Min_cycle;Max_cycle;Signal;HPM_P1;HPM_P2
2021/08/02 00:02:38;;;;;;;21.50;11.90;;;12.60;99.90;;;;;;20771882;28;20108;-79
2021/08/02 00:12:45;;;;;;;27.45;14.60;;;12.70;99.90;;;;;;20791453;28;20061;-81
2021/08/02 00:22:47;;;;;;;36.85;17.92;;;12.70;99.90;;;;;;20788235;28;20088;-79
2021/08/02 00:32:48;;;;;;;38.80;19.50;;;12.70;99.90;;;;;;20762747;28;20038;-79
2021/08/02 00:43:28;;;;;;;53.17;22.70;;;12.60;99.90;;;;;;20762392;28;20033;-79
2021/08/02 00:53:29;;;;;;;55.63;26.52;;;12.60;99.90;;;;;;20744866;28;20129;-80
2021/08/02 01:03:32;;;;;;;47.10;25.85;;;12.40;99.90;;;;;;20749133;28;20026;-79
2021/08/02 01:13:39;;;;;;;37.40;22.20;;;12.50;99.90;;;;;;20763656;28;20029;-80
2021/08/02 01:23:42;;;;;;;32.75;19.27;;;12.60;99.90;;;;;;20761304;28;20034;-80
2021/08/02 01:33:43;;;;;;;34.53;18.88;;;12.80;99.90;;;;;;20741890;28;20040;-80
2021/08/02 01:43:49;;;;;;;31.23;16.98;;;12.80;99.90;;;;;;20758178;28;20092;-79
2021/08/02 01:54:05;;;;;;;28.50;16.37;;;12.70;99.90;;;;;;20759409;28;20030;-79
2021/08/02 02:04:07;;;;;;;22.92;13.93;;;12.70;99.90;;;;;;20740934;28;20029;-80
2021/08/02 02:14:12;;;;;;;24.83;10.50;;;12.60;99.90;;;;;;20756268;28;20042;-80
2021/08/02 02:24:15;;;;;;;16.40;9.93;;;12.20;99.90;;;;;;20756159;28;20112;-80
2021/08/02 02:34:19;;;;;;;21.90;11.57;;;12.30;99.90;;;;;;20725105;28;20030;-80
2021/08/02 02:44:22;;;;;;;24.30;13.25;;;12.00;99.90;;;;;;20752995;28;20029;-80
2021/08/02 02:54:27;;;;;;;27.95;14.13;;;12.00;99.90;;;;;;20803731;23;20104;-74
2021/08/02 03:04:32;;;;;;;23.48;13.27;;;12.00;99.90;;;;;;20827819;28;20650;-75
2021/08/02 03:14:34;;;;;;;20.52;12.45;;;12.00;99.90;;;;;;20865115;28;20518;-75
2021/08/02 03:24:42;;;;;;;17.52;11.05;;;12.00;99.90;;;;;;20907012;28;20044;-75
2021/08/02 03:34:50;;;;;;;19.25;12.10;;;12.10;99.90;;;;;;20908341;28;20037;-76
2021/08/02 03:44:52;;;;;;;32.47;16.00;;;12.20;99.90;;;;;;20884333;28;20108;-76
2021/08/02 03:54:53;;;;;;;;;;;12.20;99.90;;;;;;20824816;28;20037;-76
2021/08/02 04:04:54;;;;;;;28.92;15.57;;;12.30;99.90;;;;;;20823993;28;19915;-77
2021/08/02 04:14:55;;;;;;;44.10;18.37;;;12.50;99.90;;;;;;20824061;28;20103;-75
2021/08/02 04:24:56;;;;;;;29.87;16.43;;;12.20;99.90;;;;;;20822753;28;20441;-74
2021/08/02 04:34:58;;;;;;;32.40;16.98;;;12.30;99.90;;;;;;20796555;28;20037;-75
2021/08/02 04:44:59;;;;;;;26.37;15.00;;;12.40;99.90;;;;;;20821711;28;20087;-77
2021/08/02 04:55:00;;;;;;;38.87;24.53;;;13.30;99.90;;;;;;20804262;28;20164;-77
2021/08/02 05:05:00;;;;;;;43.63;25.60;;;12.90;99.90;;;;;;20818416;28;20037;-77
2021/08/02 05:15:06;;;;;;;47.63;26.47;;;12.80;99.90;;;;;;20836174;28;20469;-76
2021/08/02 05:25:07;;;;;;;33.70;19.17;;;12.90;99.90;;;;;;20816741;28;20043;-76
2021/08/02 05:35:09;;;;;;;16.23;7.97;;;12.70;99.90;;;;;;20816462;28;20022;-75
2021/08/02 05:45:11;;;;;;;27.25;14.95;;;12.80;99.90;;;;;;20832879;28;20272;-76
2021/08/02 05:55:16;;;;;;;31.70;17.10;;;12.90;99.90;;;;;;20832840;28;20065;-76
2021/08/02 06:05:17;;;;;;;37.10;18.77;;;13.00;99.90;;;;;;20832405;28;20373;-76
2021/08/02 06:15:18;;;;;;;38.23;20.73;;;13.30;99.90;;;;;;20832161;28;20025;-76
2021/08/02 06:25:19;;;;;;;42.87;23.43;;;13.20;99.90;;;;;;20829857;28;20438;-76
2021/08/02 06:35:20;;;;;;;37.83;21.03;;;13.50;99.90;;;;;;20828796;28;20479;-76
2021/08/02 06:45:21;;;;;;;36.17;21.53;;;13.90;99.90;;;;;;20828552;28;20116;-76
2021/08/02 06:55:22;;;;;;;31.23;18.03;;;14.20;99.90;;;;;;20826649;28;20069;-76
2021/08/02 07:05:23;;;;;;;26.70;16.60;;;14.70;99.90;;;;;;20827080;28;20484;-76
2021/08/02 07:15:24;;;;;;;26.30;16.43;;;15.20;99.90;;;;;;20826250;28;20037;-76
2021/08/02 07:25:24;;;;;;;37.37;17.40;;;15.40;99.90;;;;;;20825390;28;20036;-73
2021/08/02 07:35:25;;;;;;;28.50;17.33;;;15.40;99.90;;;;;;20825255;28;20034;-74
2021/08/02 07:45:26;;;;;;;113.17;22.90;;;15.70;99.90;;;;;;20824903;28;20033;-74
2021/08/02 07:55:27;;;;;;;32.70;16.07;;;16.40;99.90;;;;;;20823605;28;20033;-74
2021/08/02 08:05:29;;;;;;;20.83;13.90;;;17.30;99.90;;;;;;20825315;28;20021;-73
2021/08/02 08:15:30;;;;;;;22.13;12.90;;;17.70;99.90;;;;;;20839720;28;20045;-74
2021/08/02 08:25:31;;;;;;;18.60;12.93;;;18.70;99.90;;;;;;20838711;28;20044;-74
2021/08/02 08:35:32;;;;;;;14.17;10.50;;;18.30;99.90;;;;;;20838317;28;20037;-74
2021/08/02 08:45:33;;;;;;;9.03;6.83;;;19.00;99.90;;;;;;20837873;28;20287;-74
2021/08/02 08:55:34;;;;;;;6.50;4.77;;;18.60;99.90;;;;;;20860425;23;20049;-76
2021/08/02 09:05:35;;;;;;;6.27;3.80;;;18.30;99.90;;;;;;20850413;28;20029;-77
2021/08/02 09:15:37;;;;;;;;;;;18.20;99.90;;;;;;20861247;28;20065;-77
2021/08/02 09:25:53;;;;;;;4.25;2.88;;;18.30;99.90;;;;;;20860270;28;20562;-78
2021/08/02 09:36:00;;;;;;;1.60;1.40;;;18.90;99.90;;;;;;20860259;28;20040;-77
2021/08/02 09:46:03;;;;;;;3.65;2.15;;;19.30;99.90;;;;;;20861336;28;20036;-78
2021/08/02 09:56:04;;;;;;;2.35;1.30;;;21.20;99.90;;;;;;20860074;28;20025;-78
2021/08/02 10:06:06;;;;;;;2.93;1.50;;;20.20;99.90;;;;;;20836470;28;20033;-77
2021/08/02 10:16:08;;;;;;;;;;;19.40;99.90;;;;;;20834827;28;20038;-78
2021/08/02 10:26:29;;;;;;;4.13;1.70;;;19.20;99.90;;;;;;20837249;28;19992;-78
2021/08/02 10:36:30;;;;;;;6.45;1.75;;;19.60;99.90;;;;;;20855781;28;20037;-77
2021/08/02 10:46:31;;;;;;;3.57;1.97;;;20.90;99.90;;;;;;20867260;28;20526;-78
2021/08/02 10:56:32;;;;;;;2.60;1.63;;;21.60;99.90;;;;;;20846220;28;20479;-78
2021/08/02 11:06:33;;;;;;;3.67;1.85;;;21.50;99.90;;;;;;20839919;28;20072;-78
2021/08/02 11:16:45;;;;;;;4.90;1.90;;;20.40;99.90;;;;;;20866380;28;20456;-78
2021/08/02 11:26:53;;;;;;;4.32;1.67;;;19.60;99.90;;;;;;20864363;28;20040;-79
2021/08/02 11:37:09;;;;;;;3.00;2.20;;;19.40;99.90;;;;;;20863649;28;20040;-78
2021/08/02 11:47:15;;;;;;;3.33;2.15;;;19.50;99.90;;;;;;20850448;28;20025;-78
2021/08/02 11:57:22;;;;;;;3.45;2.03;;;20.20;99.90;;;;;;20854885;28;20033;-78
2021/08/02 12:07:32;;;;;;;2.38;1.88;;;20.30;99.90;;;;;;20863406;28;20040;-78
2021/08/02 12:17:35;;;;;;;2.90;1.90;;;19.60;99.90;;;;;;20843057;28;20029;-77
2021/08/02 12:27:36;;;;;;;4.20;1.83;;;19.90;99.90;;;;;;20847067;28;20063;-76
2021/08/02 12:37:37;;;;;;;5.83;2.33;;;19.80;99.90;;;;;;20857975;28;20025;-77
2021/08/02 12:47:39;;;;;;;2.55;1.15;;;20.50;99.90;;;;;;20830293;28;20038;-78
2021/08/02 12:57:43;;;;;;;5.70;1.50;;;20.30;99.90;;;;;;20846639;28;20029;-79
2021/08/02 13:07:44;;;;;;;1.33;1.13;;;20.50;99.90;;;;;;20837683;28;20519;-78
2021/08/02 13:17:45;;;;;;;2.23;1.00;;;20.80;99.90;;;;;;20861527;28;20033;-78
2021/08/02 13:27:46;;;;;;;;;;;20.30;99.90;;;;;;20846993;28;20068;-78
2021/08/02 13:37:48;;;;;;;4.60;1.40;;;20.20;99.90;;;;;;20874360;28;19980;-80
2021/08/02 13:47:48;;;;;;;1.30;1.10;;;20.10;99.90;;;;;;20876502;28;20053;-79
2021/08/02 13:57:49;;;;;;;1.70;1.00;;;20.30;99.90;;;;;;20856683;28;20447;-78
2021/08/02 14:07:50;;;;;;;0.87;0.70;;;20.50;99.90;;;;;;20881020;28;20034;-80
2021/08/02 14:18:05;;;;;;;1.90;0.70;;;21.00;99.90;;;;;;20854529;28;20471;-77
2021/08/02 14:28:06;;;;;;;1.77;0.80;;;21.20;99.90;;;;;;20862444;28;20033;-78
2021/08/02 14:38:08;;;;;;;2.23;0.90;;;20.40;99.90;;;;;;20843182;28;20037;-78
2021/08/02 14:48:10;;;;;;;1.88;0.80;;;20.50;99.90;;;;;;20864354;22;20041;-75
2021/08/02 14:58:11;;;;;;;1.73;0.73;;;21.10;99.90;;;;;;20793729;28;20478;-74
2021/08/02 15:08:15;;;;;;;2.93;1.00;;;20.80;99.90;;;;;;20832463;28;20324;-74
2021/08/02 15:18:25;;;;;;;1.58;1.08;;;20.50;99.90;;;;;;20874844;28;20039;-74
2021/08/02 15:28:26;;;;;;;2.95;0.90;;;21.00;99.90;;;;;;20888852;28;20493;-74
2021/08/02 15:38:26;;;;;;;2.80;0.77;;;21.30;99.90;;;;;;20888234;28;20024;-74
2021/08/02 15:48:27;;;;;;;1.43;0.93;;;21.40;99.90;;;;;;20817607;28;20029;-74
2021/08/02 15:58:36;;;;;;;1.70;0.90;;;21.40;99.90;;;;;;20805334;28;20103;-74
2021/08/02 16:08:39;;;;;;;2.03;1.40;;;21.20;99.90;;;;;;20833911;28;20118;-73
2021/08/02 16:18:40;;;;;;;2.95;1.15;;;21.20;99.90;;;;;;20886309;28;20577;-75
2021/08/02 16:28:42;;;;;;;2.03;1.00;;;20.90;99.90;;;;;;20820107;28;20112;-74
2021/08/02 16:38:42;;;;;;;;;;;21.50;99.90;;;;;;20819665;28;20037;-74
2021/08/02 16:48:43;;;;;;;2.08;1.10;;;21.20;99.90;;;;;;20817487;28;19923;-74
2021/08/02 16:58:44;;;;;;;1.20;0.90;;;20.70;99.90;;;;;;20817101;28;20107;-74
2021/08/02 17:08:45;;;;;;;3.30;1.20;;;20.60;99.90;;;;;;20847092;28;20150;-73
2021/08/02 17:18:46;;;;;;;2.43;1.13;;;20.30;99.90;;;;;;20898608;28;20029;-74
2021/08/02 17:28:47;;;;;;;4.43;1.40;;;20.40;99.90;;;;;;20837839;28;20029;-74
2021/08/02 17:38:48;;;;;;;10.53;1.07;;;20.40;99.90;;;;;;20814343;28;20035;-74
2021/08/02 17:48:50;;;;;;;6.40;1.10;;;20.20;99.90;;;;;;20815443;28;20041;-73
2021/08/02 17:58:51;;;;;;;1.95;1.17;;;19.80;99.90;;;;;;20813272;28;20087;-74
2021/08/02 18:08:53;;;;;;;2.47;1.00;;;19.40;99.90;;;;;;20812656;28;20034;-74
2021/08/02 18:18:54;;;;;;;;;;;19.50;99.90;;;;;;20811390;28;20033;-73
2021/08/02 18:28:54;;;;;;;2.17;1.00;;;19.30;99.90;;;;;;20809571;28;19912;-76
2021/08/02 18:38:55;;;;;;;1.83;1.00;;;19.20;99.90;;;;;;20810539;28;20292;-75
2021/08/02 18:48:56;;;;;;;2.80;1.60;;;19.10;99.90;;;;;;20808897;28;20048;-76
2021/08/02 18:58:57;;;;;;;2.87;1.50;;;18.80;99.90;;;;;;20807970;28;20029;-74
2021/08/02 19:08:58;;;;;;;3.20;1.40;;;18.20;99.90;;;;;;20840822;28;20033;-77
2021/08/02 19:19:09;;;;;;;6.87;1.80;;;17.50;99.90;;;;;;20888295;28;20067;-76
2021/08/02 19:29:10;;;;;;;2.40;1.67;;;16.80;99.90;;;;;;20891236;28;20586;-77
2021/08/02 19:39:12;;;;;;;4.45;2.00;;;16.40;99.90;;;;;;20884604;28;20061;-77
2021/08/02 19:49:15;;;;;;;3.23;1.30;;;16.40;99.90;;;;;;20827419;28;20436;-77
2021/08/02 19:59:22;;;;;;;4.55;1.30;;;17.00;99.90;;;;;;20827896;28;20038;-77
2021/08/02 20:09:24;;;;;;;3.40;1.50;;;16.80;99.90;;;;;;20840663;28;20049;-77
2021/08/02 20:19:25;;;;;;;12.13;2.10;;;16.90;99.90;;;;;;20840958;28;20048;-77
2021/08/02 20:29:32;;;;;;;2.13;1.53;;;16.30;99.90;;;;;;20839566;28;20146;-77
2021/08/02 20:39:39;;;;;;;23.33;3.72;;;15.80;99.90;;;;;;20839681;28;20025;-76
2021/08/02 20:49:40;;;;;;;9.90;1.52;;;15.70;99.90;;;;;;20891105;22;20493;-81
2021/08/02 20:59:41;;;;;;;5.90;1.40;;;16.30;99.90;;;;;;20835095;28;20041;-81
2021/08/02 21:10:04;;;;;;;4.10;1.40;;;15.70;99.90;;;;;;20824560;28;20084;-80
2021/08/02 21:20:09;;;;;;;5.60;1.80;;;15.90;99.90;;;;;;20818866;28;20021;-82
2021/08/02 21:30:11;;;;;;;5.60;1.55;;;16.10;99.90;;;;;;20802493;28;20033;-82
2021/08/02 21:40:12;;;;;;;3.22;1.70;;;16.20;99.90;;;;;;20819296;28;20076;-81
2021/08/02 21:50:13;;;;;;;1.83;1.57;;;15.70;99.90;;;;;;20816090;28;20097;-82
2021/08/02 22:00:14;;;;;;;2.90;1.63;;;15.30;99.90;;;;;;20813004;28;20037;-84
2021/08/02 22:10:18;;;;;;;4.60;1.40;;;15.40;99.90;;;;;;20830866;28;20036;-82
2021/08/02 22:20:19;;;;;;;;;;;15.60;99.90;;;;;;20813106;28;20029;-82
2021/08/02 22:30:21;;;;;;;5.10;1.25;;;15.90;99.90;;;;;;20830497;28;19913;-82
2021/08/02 22:40:25;;;;;;;6.00;1.77;;;16.00;99.90;;;;;;20799179;28;20029;-82
2021/08/02 22:50:25;;;;;;;1.90;1.40;;;15.40;99.90;;;;;;20799688;28;20036;-82
2021/08/02 23:00:28;;;;;;;1.87;1.47;;;14.00;99.90;;;;;;20813012;28;20530;-82
2021/08/02 23:10:46;;;;;;;2.83;1.90;;;14.30;99.90;;;;;;20795778;28;20124;-81
2021/08/02 23:20:49;;;;;;;1.98;1.30;;;13.90;99.90;;;;;;20810416;28;20091;-81
2021/08/02 23:30:50;;;;;;;8.07;1.40;;;14.10;99.90;;;;;;20793463;28;20030;-82
2021/08/02 23:40:53;;;;;;;3.92;1.80;;;13.60;99.90;;;;;;20809644;28;20104;-81
2021/08/02 23:50:54;;;;;;;7.68;1.73;;;12.60;99.90;;;;;;20809743;28;20033;-82
